Accueil
METAR-TAF:

METAR-TAF

Aéroports :

Aéroport international Léopold-Sédar-Senghor

Dakar, Sénégal

latitude: 14-44N, longitude: 017-30W, altitude: 27 m

Observation

Le bulletin a été fait il y a 1 heure et 16 minutes, à 09:00 UTC
Vent 12 kt de nord
Température 21°C
Humidité 88%
Pression 1013 hPa
Visibilité 10 km ou plus
Quelques nuages à une hauteur de 1000 ft

METAR: GOOY 220900Z 36012KT 9999 FEW010 21/19 Q1013

Heure: 10:16 (10:16 UTC)

Prévision

Le bulletin a été fait il y a 4 heures et 46 minutes, à 05:30 UTC
Prévision valable du 22 à 06 UTC au 23 à 12 UTC
Vent 10 kt de nord/nord-ouest
Visibilité: 8000 m
Nuages épars à une hauteur de 800 ft
Evoluant progressivement
du 22 à 08 UTC au 22 à 10 UTC

TAF: GOOY 220530Z 2206/2312 34010KT 8000 SCT008 BECMG 2208/2210 NSC

Observations et prévisions météorologiques de plus de 4000 aéroports (messages METAR et TAF).

Les stations disponibles sont représentées par des disques jaunes et rouges sur la carte.

Passer la souris dessus pour voir le nom de la station.

Cliquer dessus pour voir les observations et prévisions météorologiques.

Pour changer de carte: cliquez sur les boutons verts avec une croix noire pour zoomer, sur le bouton vert avec un tiret pour effectuer un zoom arrière, ou sur les flèches vertes pour les cartes adjacentes.


METAR-TAF: